createdAt,value
2019-04-06T00:00:34.883Z,23.6
2019-04-06T00:01:24.706Z,23.6
2019-04-06T00:02:13.964Z,23.6
2019-04-06T00:03:04.231Z,23.6
2019-04-06T00:03:57.191Z,23.6
2019-04-06T00:04:44.938Z,23.6
2019-04-06T00:05:34.683Z,23.6
2019-04-06T00:06:25.088Z,23.6
2019-04-06T00:07:14.534Z,23.6
2019-04-06T00:08:05.436Z,23.6
2019-04-06T00:08:54.437Z,23.6
2019-04-06T00:09:44.785Z,23.6
2019-04-06T00:10:34.793Z,23.6
2019-04-06T00:11:25.721Z,23.6
2019-04-06T00:12:15.213Z,23.6
2019-04-06T00:13:05.571Z,23.6
2019-04-06T00:13:55.615Z,23.6
2019-04-06T00:14:44.846Z,23.6
2019-04-06T00:15:36.027Z,23.6
2019-04-06T00:16:25.828Z,23.5
2019-04-06T00:17:15.528Z,23.6
2019-04-06T00:18:05.028Z,23.5
2019-04-06T00:18:56.200Z,23.6
2019-04-06T00:19:46.004Z,23.6
2019-04-06T00:20:35.766Z,23.6
2019-04-06T00:21:26.108Z,23.6
2019-04-06T00:22:16.463Z,23.5
2019-04-06T00:23:06.310Z,23.5
2019-04-06T00:23:55.532Z,23.6
2019-04-06T00:24:46.365Z,23.5
2019-04-06T00:25:48.169Z,23.5
2019-04-06T00:26:26.253Z,23.5
2019-04-06T00:27:16.803Z,23.5
2019-04-06T00:28:06.595Z,23.5
2019-04-06T00:28:56.115Z,23.6
2019-04-06T00:29:46.441Z,23.5
2019-04-06T00:30:36.819Z,23.5
2019-04-06T00:31:26.324Z,23.5
2019-04-06T00:32:17.252Z,23.5
2019-04-06T00:33:06.691Z,23.5
2019-04-06T00:33:57.347Z,23.5
2019-04-06T00:34:46.892Z,23.5
2019-04-06T00:35:37.517Z,23.5
2019-04-06T00:36:26.947Z,23.5
2019-04-06T00:37:17.261Z,23.5
2019-04-06T00:38:07.349Z,23.5
2019-04-06T00:38:56.949Z,23.5
2019-04-06T00:39:46.977Z,23.5
2019-04-06T00:40:52.129Z,23.5
2019-04-06T00:41:27.390Z,23.5
2019-04-06T00:42:17.406Z,23.5
2019-04-06T00:43:08.019Z,23.5
2019-04-06T00:43:58.049Z,23.4
2019-04-06T00:44:47.518Z,23.5
2019-04-06T00:45:37.948Z,23.5
2019-04-06T00:46:27.958Z,23.5
2019-04-06T00:47:17.783Z,23.5
2019-04-06T00:48:08.011Z,23.5
2019-04-06T00:48:58.073Z,23.5
2019-04-06T00:49:47.794Z,23.5
2019-04-06T00:50:37.960Z,23.4
2019-04-06T00:51:28.316Z,23.4
2019-04-06T00:52:18.367Z,23.4
2019-04-06T00:53:08.502Z,23.4
2019-04-06T00:53:58.898Z,23.5
2019-04-06T00:54:48.626Z,23.4
2019-04-06T00:55:38.343Z,23.4
2019-04-06T00:56:28.447Z,23.5
2019-04-06T00:57:18.424Z,23.4
2019-04-06T00:58:09.071Z,23.4
2019-04-06T00:58:58.998Z,23.4
2019-04-06T00:59:48.883Z,23.4
2019-04-06T01:00:38.466Z,23.4
2019-04-06T01:01:28.741Z,23.4
2019-04-06T01:02:19.480Z,23.4
2019-04-06T01:03:09.221Z,23.4
2019-04-06T01:03:58.615Z,23.4
2019-04-06T01:04:49.477Z,23.4
2019-04-06T01:05:39.132Z,23.4
2019-04-06T01:06:29.735Z,23.4
2019-04-06T01:07:19.697Z,23.4
2019-04-06T01:08:09.200Z,23.4
2019-04-06T01:08:59.569Z,23.4
2019-04-06T01:09:49.673Z,23.4
2019-04-06T01:10:39.394Z,23.4
2019-04-06T01:11:29.735Z,23.4
2019-04-06T01:12:34.217Z,23.4
2019-04-06T01:13:10.177Z,23.4
2019-04-06T01:14:00.047Z,23.4
2019-04-06T01:14:49.665Z,23.4
2019-04-06T01:15:40.439Z,23.4
2019-04-06T01:16:30.142Z,23.4
2019-04-06T01:17:20.162Z,23.4
2019-04-06T01:18:10.085Z,23.4
2019-04-06T01:19:00.015Z,23.4
2019-04-06T01:19:50.357Z,23.4
2019-04-06T01:20:40.933Z,23.4
2019-04-06T01:21:30.647Z,23.4
2019-04-06T01:22:20.672Z,23.4
2019-04-06T01:23:10.695Z,23.4
2019-04-06T01:24:00.178Z,23.4
2019-04-06T01:24:50.764Z,23.4
2019-04-06T01:25:41.096Z,23.4
2019-04-06T01:26:31.169Z,23.4
2019-04-06T01:27:21.349Z,23.4
2019-04-06T01:28:10.934Z,23.4
2019-04-06T01:29:00.761Z,23.4
2019-04-06T01:29:50.316Z,23.4
2019-04-06T01:30:40.019Z,23.4
2019-04-06T01:31:31.664Z,23.4
2019-04-06T01:32:21.037Z,23.4
2019-04-06T01:33:11.467Z,23.4
2019-04-06T01:34:03.756Z,23.4
2019-04-06T01:34:51.641Z,23.4
2019-04-06T01:35:41.478Z,23.4
2019-04-06T01:36:31.543Z,23.4
2019-04-06T01:37:21.604Z,23.4
2019-04-06T01:38:11.794Z,23.4
2019-04-06T01:39:02.071Z,23.4
2019-04-06T01:39:52.153Z,23.4
2019-04-06T01:40:41.208Z,23.4
2019-04-06T01:41:31.954Z,23.4
2019-04-06T01:42:21.780Z,23.4
2019-04-06T01:43:12.343Z,23.4
2019-04-06T01:44:02.188Z,23.4
2019-04-06T01:44:51.945Z,23.4
2019-04-06T01:45:41.148Z,23.4
2019-04-06T01:46:31.673Z,23.4
2019-04-06T01:47:21.912Z,23.4
2019-04-06T01:48:12.073Z,23.4
2019-04-06T01:49:01.836Z,23.4
2019-04-06T01:49:52.018Z,23.4
2019-04-06T01:50:41.473Z,23.4
2019-04-06T01:51:32.880Z,23.4
2019-04-06T01:52:23.057Z,23.4
2019-04-06T01:53:12.724Z,23.4
2019-04-06T01:54:02.553Z,23.4
2019-04-06T01:54:52.485Z,23.4
2019-04-06T01:55:42.644Z,23.4
2019-04-06T01:56:33.142Z,23.4
2019-04-06T01:57:23.250Z,23.4
2019-04-06T01:58:12.287Z,23.4
2019-04-06T01:59:03.744Z,23.4
2019-04-06T01:59:52.690Z,23.4
2019-04-06T02:00:42.651Z,23.4
2019-04-06T02:01:33.802Z,23.4
2019-04-06T02:02:23.539Z,23.4
2019-04-06T02:03:12.687Z,23.3
2019-04-06T02:04:04.045Z,23.3
2019-04-06T02:04:53.561Z,23.3
2019-04-06T02:05:43.354Z,23.3
2019-04-06T02:06:33.836Z,23.3
2019-04-06T02:07:24.031Z,23.4
2019-04-06T02:08:13.394Z,23.3
2019-04-06T02:09:03.984Z,23.4
2019-04-06T02:09:54.089Z,23.3
2019-04-06T02:10:44.124Z,23.3
2019-04-06T02:11:33.940Z,23.3
2019-04-06T02:12:23.316Z,23.3
2019-04-06T02:13:14.479Z,23.3
2019-04-06T02:14:04.531Z,23.3
2019-04-06T02:14:54.386Z,23.3
2019-04-06T02:15:44.076Z,23.3
2019-04-06T02:16:34.764Z,23.3
2019-04-06T02:17:25.003Z,23.3
2019-04-06T02:18:14.177Z,23.3
2019-04-06T02:19:05.343Z,23.3
2019-04-06T02:19:55.077Z,23.3
2019-04-06T02:20:59.724Z,23.3
2019-04-06T02:21:34.633Z,23.3
2019-04-06T02:22:24.636Z,23.3
2019-04-06T02:23:14.746Z,23.3
2019-04-06T02:24:04.945Z,23.3
2019-04-06T02:24:54.550Z,23.3
2019-04-06T02:25:45.102Z,23.3
2019-04-06T02:26:37.275Z,23.3
2019-04-06T02:27:24.989Z,23.3
2019-04-06T02:28:15.416Z,23.3
2019-04-06T02:29:05.930Z,23.3
2019-04-06T02:29:55.471Z,23.3
2019-04-06T02:30:46.002Z,23.3
2019-04-06T02:31:35.378Z,23.3
2019-04-06T02:32:26.580Z,23.3
2019-04-06T02:33:19.956Z,23.3
2019-04-06T02:34:05.483Z,23.3
2019-04-06T02:34:56.020Z,23.3
2019-04-06T02:35:46.013Z,23.3
2019-04-06T02:36:36.703Z,23.3
2019-04-06T02:37:26.735Z,23.3
2019-04-06T02:38:15.494Z,23.3
2019-04-06T02:39:05.898Z,23.3
2019-04-06T02:39:56.493Z,23.3
2019-04-06T02:40:47.055Z,23.3
2019-04-06T02:41:35.454Z,23.3
2019-04-06T02:42:27.345Z,23.3
2019-04-06T02:43:17.234Z,23.3
2019-04-06T02:44:06.342Z,23.3
2019-04-06T02:44:57.073Z,23.3
2019-04-06T02:45:46.659Z,23.3
2019-04-06T02:46:37.250Z,23.3
2019-04-06T02:47:26.965Z,23.3
2019-04-06T02:48:17.591Z,23.3
2019-04-06T02:49:07.297Z,23.3
2019-04-06T02:49:57.313Z,23.3
2019-04-06T02:50:47.430Z,23.3
2019-04-06T02:51:37.597Z,23.3
2019-04-06T02:52:27.486Z,23.3
2019-04-06T02:53:17.128Z,23.3
2019-04-06T02:54:07.583Z,23.3
2019-04-06T02:54:57.304Z,23.3
2019-04-06T02:55:47.597Z,23.3
2019-04-06T02:56:53.492Z,23.3
2019-04-06T02:57:27.909Z,23.3
2019-04-06T02:58:17.962Z,23.3
2019-04-06T02:59:07.587Z,23.3
2019-04-06T02:59:57.951Z,23.3
2019-04-06T03:00:48.037Z,23.3
2019-04-06T03:01:37.684Z,23.3
2019-04-06T03:02:28.726Z,23.3
2019-04-06T03:03:18.515Z,23.3
2019-04-06T03:04:08.388Z,23.3
2019-04-06T03:07:28.095Z,23.3
2019-04-06T03:08:03.812Z,23.3
2019-04-06T03:08:53.697Z,23.3
2019-04-06T03:09:43.983Z,23.3
2019-04-06T03:10:34.461Z,23.3
2019-04-06T03:11:24.780Z,23.2
2019-04-06T03:12:14.261Z,23.3
2019-04-06T03:13:04.281Z,23.3
2019-04-06T03:13:55.005Z,23.3
2019-04-06T03:14:48.203Z,23.3
2019-04-06T03:15:34.230Z,23.2
2019-04-06T03:16:24.550Z,23.3
2019-04-06T03:17:14.250Z,23.2
2019-04-06T03:18:04.641Z,23.3
2019-04-06T03:18:55.252Z,23.2
2019-04-06T03:19:45.133Z,23.2
2019-04-06T03:20:35.049Z,23.2
2019-04-06T03:21:24.648Z,23.2
2019-04-06T03:22:14.764Z,23.2
2019-04-06T03:23:04.595Z,23.2
2019-04-06T03:23:59.130Z,23.2
2019-04-06T03:24:45.211Z,23.2
2019-04-06T03:25:35.590Z,23.2
2019-04-06T03:26:25.219Z,23.2
2019-04-06T03:27:14.931Z,23.2
2019-04-06T03:28:04.986Z,23.2
2019-04-06T03:28:55.780Z,23.2
2019-04-06T03:30:03.562Z,23.2
2019-04-06T03:30:37.128Z,23.2
2019-04-06T03:31:35.028Z,23.2
2019-04-06T03:32:15.649Z,23.2
2019-04-06T03:33:06.325Z,23.2
2019-04-06T03:33:56.605Z,23.2
2019-04-06T03:34:47.133Z,23.2
2019-04-06T03:35:36.400Z,23.2
2019-04-06T03:36:25.790Z,23.2
2019-04-06T03:37:15.794Z,23.2
2019-04-06T03:38:06.616Z,23.2
2019-04-06T03:38:55.827Z,23.2
2019-04-06T03:39:45.906Z,23.2
2019-04-06T03:40:36.009Z,23.2
2019-04-06T03:41:25.951Z,23.2
2019-04-06T03:42:17.242Z,23.2
2019-04-06T03:43:06.622Z,23.2
2019-04-06T03:43:57.047Z,23.2
2019-04-06T03:44:45.718Z,23.2
2019-04-06T03:45:36.580Z,23.2
2019-04-06T03:46:26.940Z,23.2
2019-04-06T03:47:17.082Z,23.2
2019-04-06T03:48:06.517Z,23.2
2019-04-06T03:48:55.989Z,23.2
2019-04-06T03:49:46.209Z,23.2
2019-04-06T03:50:36.286Z,23.2
2019-04-06T03:51:27.404Z,23.2
2019-04-06T03:52:16.888Z,23.2
2019-04-06T03:53:06.386Z,23.2
2019-04-06T03:53:57.131Z,23.2
2019-04-06T03:54:46.711Z,23.2
2019-04-06T03:55:36.897Z,23.2
2019-04-06T03:56:27.744Z,23.2
2019-04-06T03:57:23.266Z,23.2
2019-04-06T03:58:07.924Z,23.2
2019-04-06T03:58:58.936Z,23.2
2019-04-06T03:59:47.711Z,23.1
2019-04-06T04:00:38.539Z,23.2
2019-04-06T04:01:28.084Z,23.2
2019-04-06T04:02:17.621Z,23.1
2019-04-06T04:03:08.090Z,23.1
2019-04-06T04:03:57.698Z,23.2
2019-04-06T04:04:48.109Z,23.1
2019-04-06T04:05:38.711Z,23.1
2019-04-06T04:06:27.811Z,23.2
2019-04-06T04:07:18.911Z,23.1
2019-04-06T04:08:07.335Z,23.1
2019-04-06T04:08:57.943Z,23.1
2019-04-06T04:09:48.955Z,23.2
2019-04-06T04:10:38.589Z,23.1
2019-04-06T04:11:29.432Z,23.1
2019-04-06T04:12:18.283Z,23.1
2019-04-06T04:13:08.142Z,23.1
2019-04-06T04:13:58.794Z,23.1
2019-04-06T04:14:48.330Z,23.1
2019-04-06T04:15:39.095Z,23.1
2019-04-06T04:16:29.221Z,23.1
2019-04-06T04:17:18.991Z,23.1
2019-04-06T04:18:09.494Z,23.1
2019-04-06T04:18:58.675Z,23.1
2019-04-06T04:19:48.559Z,23.1
2019-04-06T04:20:38.722Z,23.1
2019-04-06T04:21:29.346Z,23.1
2019-04-06T04:22:19.605Z,23.1
2019-04-06T04:23:09.669Z,23.1
2019-04-06T04:23:59.406Z,23.1
2019-04-06T04:24:49.200Z,23.1
2019-04-06T04:25:39.519Z,23.1
2019-04-06T04:26:29.897Z,23.1
2019-04-06T04:27:36.632Z,23.1
2019-04-06T04:28:09.969Z,23.1
2019-04-06T04:29:00.293Z,23.1
2019-04-06T04:29:50.232Z,23.1
2019-04-06T04:30:41.024Z,23.1
2019-04-06T04:31:30.064Z,23.1
2019-04-06T04:32:20.304Z,23.1
2019-04-06T04:33:09.616Z,23.1
2019-04-06T04:34:00.211Z,23.1
2019-04-06T04:34:49.886Z,23.1
2019-04-06T04:35:39.996Z,23.1
2019-04-06T04:36:31.076Z,23.1
2019-04-06T04:37:20.704Z,23.1
2019-04-06T04:38:10.600Z,23.1
2019-04-06T04:38:59.711Z,23.1
2019-04-06T04:39:51.314Z,23.1
2019-04-06T04:40:41.165Z,23.1
2019-04-06T04:41:30.653Z,23.1
2019-04-06T04:42:20.784Z,23.1
2019-04-06T04:43:10.460Z,23.1
2019-04-06T04:44:01.792Z,23.1
2019-04-06T04:44:51.517Z,23.1
2019-04-06T04:45:41.040Z,23.1
2019-04-06T04:46:31.445Z,23.1
2019-04-06T04:47:21.010Z,23.1
2019-04-06T04:48:10.583Z,23.1
2019-04-06T04:49:00.985Z,23.1
2019-04-06T04:49:52.026Z,23.1
2019-04-06T04:50:40.878Z,23.1
2019-04-06T04:51:30.994Z,23.1
2019-04-06T04:52:21.660Z,23.1
2019-04-06T04:53:11.142Z,23.1
2019-04-06T04:54:01.743Z,23.1
2019-04-06T04:54:50.950Z,23.1
2019-04-06T04:55:41.577Z,23.1
2019-04-06T04:56:31.295Z,23.1
2019-04-06T04:57:22.137Z,23.1
2019-04-06T04:58:11.229Z,23.1
2019-04-06T04:59:01.757Z,23.1
2019-04-06T04:59:51.190Z,23.1
2019-04-06T05:00:42.265Z,23.1
2019-04-06T05:01:32.531Z,23.1
2019-04-06T05:02:22.444Z,23.1
2019-04-06T05:03:12.682Z,23.1
2019-04-06T05:04:01.929Z,23.1
2019-04-06T05:04:53.023Z,23.1
2019-04-06T05:05:42.576Z,23.1
2019-04-06T05:06:32.539Z,23.1
2019-04-06T05:07:22.229Z,23.1
2019-04-06T05:08:12.455Z,23.1
2019-04-06T05:09:03.157Z,23.1
2019-04-06T05:09:52.771Z,23.1
2019-04-06T05:10:42.784Z,23.1
2019-04-06T05:11:32.989Z,23.1
2019-04-06T05:12:22.406Z,23.1
2019-04-06T05:13:13.088Z,23.1
2019-04-06T05:14:02.129Z,23.1
2019-04-06T05:14:53.301Z,23.1
2019-04-06T05:15:42.654Z,23.1
2019-04-06T05:16:32.986Z,23.1
2019-04-06T05:17:23.108Z,23.1
2019-04-06T05:18:12.328Z,23.1
2019-04-06T05:19:03.752Z,23.1
2019-04-06T05:19:53.336Z,23.1
2019-04-06T05:20:42.850Z,23
2019-04-06T05:21:33.396Z,23.1
2019-04-06T05:22:23.582Z,23
2019-04-06T05:23:12.928Z,23.1
2019-04-06T05:24:02.720Z,23.1
2019-04-06T05:24:54.023Z,23.1
2019-04-06T05:25:43.626Z,23.1
2019-04-06T05:26:44.278Z,23.1
2019-04-06T05:27:23.706Z,23.1
2019-04-06T05:28:13.463Z,23.1
2019-04-06T05:29:04.546Z,23.1
2019-04-06T05:29:53.709Z,23.1
2019-04-06T05:30:44.003Z,23.1
2019-04-06T06:05:31.980Z,23
2019-04-06T06:06:05.071Z,23
2019-04-06T06:06:53.610Z,23
2019-04-06T06:07:44.215Z,23
2019-04-06T06:08:36.574Z,23
2019-04-06T06:09:23.903Z,23
2019-04-06T06:10:13.076Z,23
2019-04-06T06:11:04.103Z,23
2019-04-06T06:11:55.394Z,23
2019-04-06T06:12:44.233Z,23
2019-04-06T06:13:34.911Z,23
2019-04-06T06:14:24.513Z,23
2019-04-06T06:15:14.123Z,23
2019-04-06T06:16:04.453Z,22.4
2019-04-06T06:16:54.816Z,17.3
2019-04-06T06:17:43.773Z,21.3
2019-04-06T06:18:34.440Z,26.1
2019-04-06T06:19:24.318Z,27.8
2019-04-06T06:20:14.757Z,26.7
2019-04-06T06:21:04.917Z,24
2019-04-06T06:21:55.317Z,22.6
2019-04-06T06:22:45.042Z,22
2019-04-06T06:23:35.400Z,21.8
2019-04-06T06:24:25.294Z,21.8
2019-04-06T06:25:15.612Z,21.8
2019-04-06T06:26:06.460Z,21.8
2019-04-06T06:26:54.498Z,21.9
2019-04-06T06:27:46.066Z,21.9
2019-04-06T06:28:36.114Z,21.9
2019-04-06T06:29:25.124Z,21.9
2019-04-06T06:30:15.548Z,21.9
2019-04-06T06:31:05.832Z,21.9
2019-04-06T06:31:55.938Z,21.9
2019-04-06T06:32:46.174Z,21.9
2019-04-06T06:33:36.085Z,22
2019-04-06T06:34:26.092Z,22
2019-04-06T06:35:16.149Z,22.1
2019-04-06T06:36:05.036Z,22.1
2019-04-06T06:36:56.101Z,22.1
2019-04-06T06:37:46.347Z,22.1
2019-04-06T06:38:38.988Z,22.1
2019-04-06T06:39:26.349Z,22.1
2019-04-06T06:40:15.796Z,22.1
2019-04-06T06:41:05.499Z,22.2
2019-04-06T06:41:56.629Z,22.2
2019-04-06T06:42:46.500Z,22.3
2019-04-06T06:43:36.136Z,22.3
2019-04-06T06:44:26.790Z,22.3
2019-04-06T06:45:15.524Z,22.3
2019-04-06T06:46:06.716Z,22.3
2019-04-06T06:46:56.166Z,22.3
2019-04-06T06:47:46.079Z,22.1
2019-04-06T06:48:36.961Z,20.1
2019-04-06T06:49:26.128Z,25.9
2019-04-06T06:50:17.593Z,30.3
2019-04-06T06:51:07.059Z,32.2
2019-04-06T06:51:57.126Z,31.8
2019-04-06T06:52:47.076Z,29.9
2019-04-06T06:53:37.074Z,28.1
2019-04-06T06:54:27.522Z,26.8
2019-04-06T06:55:17.205Z,26.3
2019-04-06T06:56:06.608Z,26.4
2019-04-06T06:56:57.151Z,26.9
2019-04-06T06:57:46.948Z,27.6
2019-04-06T06:58:37.022Z,28.1
2019-04-06T06:59:27.802Z,28.3
2019-04-06T07:00:17.145Z,28.4
2019-04-06T07:01:09.945Z,28.3
2019-04-06T07:01:56.820Z,28.1
2019-04-06T07:02:47.393Z,28.1
2019-04-06T07:05:13.083Z,28.5
2019-04-06T07:06:03.811Z,28.9
2019-04-06T07:06:54.299Z,29.3
2019-04-06T07:07:43.458Z,29.6
2019-04-06T07:08:33.149Z,29.8
2019-04-06T07:09:24.254Z,29.9
2019-04-06T07:10:14.605Z,30.1
2019-04-06T07:11:04.646Z,30.3
2019-04-06T07:11:53.737Z,30.5
2019-04-06T07:12:44.616Z,30.8
2019-04-06T07:13:34.528Z,31
2019-04-06T07:14:23.986Z,31.3
2019-04-06T07:15:14.751Z,31.6
2019-04-06T07:16:03.881Z,31.8
2019-04-06T07:16:55.060Z,32.1
2019-04-06T07:17:43.483Z,32.4
2019-04-06T07:18:34.778Z,32.6
2019-04-06T07:19:24.994Z,32.7
2019-04-06T07:20:14.718Z,32.9
2019-04-06T07:21:05.271Z,33.1
2019-04-06T07:21:54.949Z,33.4
2019-04-06T07:22:44.433Z,33.6
2019-04-06T07:23:35.058Z,33.8
2019-04-06T07:24:24.595Z,33.9
2019-04-06T07:25:14.287Z,34
2019-04-06T07:26:05.132Z,34.1
2019-04-06T07:26:54.715Z,34.2
2019-04-06T07:27:44.937Z,34.3
2019-04-06T07:28:45.822Z,34.5
2019-04-06T07:29:25.061Z,34.7
2019-04-06T07:30:15.112Z,34.9
2019-04-06T07:31:05.730Z,35.1
2019-04-06T07:31:55.042Z,35.4
2019-04-06T07:32:45.382Z,35.7
2019-04-06T07:33:35.685Z,36
2019-04-06T07:34:26.061Z,36.3
2019-04-06T07:35:15.313Z,36.5
2019-04-06T07:36:05.774Z,36.8
2019-04-06T07:36:56.466Z,37
2019-04-06T07:37:45.992Z,37.3
2019-04-06T07:38:38.705Z,37.4
2019-04-06T07:39:26.107Z,37.6
2019-04-06T07:40:15.931Z,37.9
2019-04-06T07:41:06.308Z,38.1
2019-04-06T07:41:56.259Z,38.3
2019-04-06T07:42:46.483Z,38.4
2019-04-06T07:43:36.109Z,38.6
2019-04-06T07:44:26.628Z,38.7
2019-04-06T07:45:16.342Z,38.8
2019-04-06T07:46:06.654Z,39
2019-04-06T07:46:55.306Z,39.2
2019-04-06T07:47:46.541Z,39.4
2019-04-06T07:48:37.416Z,39.6
2019-04-06T07:49:26.793Z,39.7
2019-04-06T07:50:16.593Z,39.8
2019-04-06T07:51:06.897Z,39.8
2019-04-06T07:51:56.963Z,39.9
2019-04-06T07:52:46.873Z,39.9
2019-04-06T07:53:36.450Z,40.1
2019-04-06T07:54:26.470Z,40.2
2019-04-06T07:55:16.678Z,40.3
2019-04-06T07:56:06.618Z,40.5
2019-04-06T07:56:57.084Z,40.6
2019-04-06T07:57:47.073Z,40.9
2019-04-06T07:58:50.563Z,41.1
2019-04-06T07:59:27.041Z,41.4
2019-04-06T08:00:17.256Z,41.7
2019-04-06T08:01:07.685Z,42
2019-04-06T08:01:57.057Z,42.3
2019-04-06T08:02:47.091Z,42.6
2019-04-06T08:03:38.224Z,42.9
2019-04-06T08:04:27.340Z,43.1
2019-04-06T08:05:17.387Z,43.3
2019-04-06T08:06:07.535Z,43.4
2019-04-06T08:06:58.768Z,43.6
2019-04-06T08:07:47.818Z,43.9
2019-04-06T08:08:37.722Z,44.1
2019-04-06T08:09:28.095Z,44.3
2019-04-06T08:10:18.107Z,44.6
2019-04-06T08:11:08.667Z,44.8
2019-04-06T08:11:58.970Z,44.9
2019-04-06T08:12:48.724Z,45.1
2019-04-06T08:13:39.035Z,45.4
2019-04-06T08:14:28.155Z,45.6
2019-04-06T08:15:18.292Z,45.9
2019-04-06T08:16:09.398Z,46.1
2019-04-06T08:16:58.135Z,46.3
2019-04-06T08:17:47.984Z,46.4
2019-04-06T08:18:39.473Z,46.6
2019-04-06T08:19:28.592Z,46.8
2019-04-06T08:20:19.242Z,47
2019-04-06T08:21:09.061Z,47.3
2019-04-06T08:21:59.045Z,47.4
2019-04-06T08:22:49.707Z,47.6
2019-04-06T08:23:38.707Z,47.8
2019-04-06T08:24:30.219Z,47.9
2019-04-06T08:25:19.039Z,47.9
2019-04-06T08:26:09.929Z,47.9
2019-04-06T08:26:59.931Z,47.9
2019-04-06T08:27:49.021Z,47.9
2019-04-06T08:28:39.624Z,48
2019-04-06T08:29:29.689Z,48.3
2019-04-06T08:30:19.728Z,48.7
2019-04-06T08:31:10.108Z,49.1
2019-04-06T08:31:59.698Z,49.4
2019-04-06T08:32:49.866Z,49.6
2019-04-06T08:33:38.898Z,49.8
2019-04-06T08:34:29.543Z,50
2019-04-06T08:35:32.563Z,50.3
2019-04-06T08:36:10.532Z,50.6
2019-04-06T08:37:00.130Z,50.9
2019-04-06T08:37:49.643Z,51.1
2019-04-06T08:38:39.531Z,51.1
2019-04-06T08:39:32.283Z,51.1
2019-04-06T08:40:19.916Z,50.8
2019-04-06T08:41:10.351Z,50.3
2019-04-06T08:42:00.528Z,49.5
2019-04-06T08:42:49.908Z,48.6
2019-04-06T08:43:39.840Z,47.8
2019-04-06T08:44:31.185Z,47.1
2019-04-06T08:45:21.110Z,46.4
2019-04-06T08:46:10.251Z,45.9
2019-04-06T08:47:01.128Z,45.6
2019-04-06T08:47:51.053Z,45.4
2019-04-06T08:48:41.130Z,45.3
2019-04-06T08:49:31.118Z,45.4
2019-04-06T08:50:21.498Z,46
2019-04-06T08:51:11.353Z,46.8
2019-04-06T08:52:02.028Z,47.5
2019-04-06T08:52:51.848Z,47.9
2019-04-06T08:53:41.400Z,47.9
2019-04-06T08:54:31.875Z,47.8
2019-04-06T08:55:21.844Z,47.7
2019-04-06T08:56:11.814Z,47.7
2019-04-06T08:57:02.110Z,47.9
2019-04-06T08:57:51.812Z,48.5
2019-04-06T08:58:42.504Z,49.4
2019-04-06T08:59:32.633Z,50.6
2019-04-06T09:00:22.229Z,51.6
2019-04-06T09:01:12.407Z,52.1
2019-04-06T09:02:02.128Z,51.8
2019-04-06T09:02:52.025Z,51.4
2019-04-06T09:03:41.874Z,51
2019-04-06T09:04:32.414Z,51.1
2019-04-06T09:05:22.537Z,51.7
2019-04-06T09:07:02.614Z,51.7
2019-04-06T09:07:52.529Z,51.3
2019-04-06T09:08:42.077Z,50.9
2019-04-06T09:09:33.170Z,50.5
2019-04-06T09:10:22.427Z,50.1
2019-04-06T09:11:12.042Z,49.9
2019-04-06T09:12:02.992Z,49.6
2019-04-06T09:12:52.692Z,49.4
2019-04-06T09:13:45.792Z,49.1
2019-04-06T09:14:32.487Z,48.8
2019-04-06T09:15:22.769Z,48.4
2019-04-06T09:16:13.104Z,48.1
2019-04-06T09:17:02.439Z,47.9
2019-04-06T09:17:53.368Z,47.8
2019-04-06T09:18:44.366Z,47.8
2019-04-06T09:19:33.844Z,47.9
2019-04-06T09:20:23.311Z,47.9
2019-04-06T09:21:13.451Z,47.9
2019-04-06T09:22:04.531Z,47.8
2019-04-06T09:22:54.049Z,47.6
2019-04-06T09:23:43.641Z,47.6
2019-04-06T09:24:34.543Z,47.6
2019-04-06T09:25:23.732Z,47.9
2019-04-06T09:26:14.123Z,48.4
2019-04-06T09:27:04.378Z,48.9
2019-04-06T09:27:54.064Z,49.4
2019-04-06T09:28:42.963Z,49.6
2019-04-06T09:29:32.603Z,49.8
2019-04-06T09:30:24.099Z,50.1
2019-04-06T09:31:13.863Z,50.9
2019-04-06T09:32:03.605Z,51.9
2019-04-06T09:32:54.512Z,52.8
2019-04-06T09:33:43.968Z,53.6
2019-04-06T09:34:38.156Z,54
2019-04-06T09:35:24.578Z,54.3
2019-04-06T09:36:14.617Z,54.5
2019-04-06T09:37:04.968Z,54.8
2019-04-06T09:37:54.968Z,55
2019-04-06T09:38:44.722Z,55.3
2019-04-06T09:39:35.500Z,55.4
2019-04-06T09:40:24.825Z,55.2
2019-04-06T09:41:15.604Z,54.7
2019-04-06T09:42:05.305Z,54.1
2019-04-06T09:42:55.470Z,53.4
2019-04-06T09:43:44.469Z,53.1
2019-04-06T09:44:35.805Z,53.2
2019-04-06T09:45:25.609Z,53.9
2019-04-06T09:46:15.187Z,54.9
2019-04-06T09:47:05.745Z,55.8
2019-04-06T09:47:55.532Z,56.3
2019-04-06T09:48:45.315Z,56.4
2019-04-06T09:49:36.077Z,56.3
2019-04-06T09:50:25.879Z,56
2019-04-06T09:51:15.237Z,55.9
2019-04-06T09:52:04.765Z,56
2019-04-06T09:52:55.892Z,56
2019-04-06T09:53:45.775Z,55.9
2019-04-06T09:54:36.117Z,55.7
2019-04-06T09:55:26.346Z,55.4
2019-04-06T09:56:15.677Z,55.1
2019-04-06T09:57:06.805Z,54.8
2019-04-06T09:57:56.487Z,54.5
2019-04-06T09:58:46.368Z,54.3
2019-04-06T09:59:43.778Z,54.3
2019-04-06T10:00:26.286Z,54.5
2019-04-06T10:01:15.506Z,54.6
2019-04-06T10:02:06.856Z,54.8
2019-04-06T10:02:56.654Z,55.1
2019-04-06T10:03:46.521Z,55.3
2019-04-06T10:06:17.035Z,55
2019-04-06T10:07:03.338Z,54.3
2019-04-06T10:07:53.776Z,53.8
2019-04-06T10:08:44.276Z,53.4
2019-04-06T10:09:34.228Z,53.1
2019-04-06T10:10:24.161Z,53.2
2019-04-06T10:11:14.066Z,53.5
2019-04-06T10:12:08.116Z,54.1
2019-04-06T10:12:54.527Z,54.8
2019-04-06T10:13:44.145Z,55.3
2019-04-06T10:14:34.628Z,55.5
2019-04-06T10:15:24.152Z,55.3
2019-04-06T10:16:14.860Z,54.9
2019-04-06T10:17:05.363Z,54.2
2019-04-06T10:17:54.805Z,53.3
2019-04-06T10:18:45.056Z,52.6
2019-04-06T10:19:34.587Z,52.1
2019-04-06T10:20:25.591Z,51.7
2019-04-06T10:21:14.918Z,51.2
2019-04-06T10:22:05.012Z,50.6
2019-04-06T10:22:54.503Z,50.2
2019-04-06T10:23:44.991Z,49.8
2019-04-06T10:24:35.443Z,49.3
2019-04-06T10:25:25.966Z,48.7
2019-04-06T10:26:15.075Z,48.1
2019-04-06T10:27:05.458Z,47.7
2019-04-06T10:27:55.825Z,47.5
2019-04-06T10:28:45.537Z,47.3
2019-04-06T10:29:50.862Z,47.2
2019-04-06T10:30:25.775Z,47.1
2019-04-06T10:31:15.362Z,47.2
2019-04-06T10:32:05.637Z,47.4
2019-04-06T10:32:55.927Z,47.6
2019-04-06T10:33:45.892Z,48.1
2019-04-06T10:34:35.666Z,48.5
2019-04-06T10:35:26.322Z,48.9
2019-04-06T10:36:15.650Z,49.4
2019-04-06T10:37:06.369Z,49.6
2019-04-06T10:37:56.020Z,49.8
2019-04-06T10:38:45.239Z,49.8
2019-04-06T10:39:36.488Z,49.6
2019-04-06T10:40:26.946Z,49.4
2019-04-06T10:41:17.228Z,49.2
2019-04-06T10:42:07.044Z,49.1
2019-04-06T10:42:56.203Z,49
2019-04-06T10:43:46.124Z,48.9
2019-04-06T10:44:36.477Z,49
2019-04-06T10:45:27.081Z,49.1
2019-04-06T10:46:16.509Z,49.3
2019-04-06T10:47:07.028Z,49.6
2019-04-06T10:47:57.363Z,50
2019-04-06T10:48:46.545Z,50.4
2019-04-06T10:49:36.553Z,50.7
2019-04-06T10:50:26.630Z,51.1
2019-04-06T10:51:16.259Z,51.4
2019-04-06T10:52:07.122Z,51.7
2019-04-06T10:52:56.901Z,52
2019-04-06T10:53:47.286Z,52.3
2019-04-06T10:54:36.963Z,52.7
2019-04-06T10:55:27.007Z,53
2019-04-06T10:56:17.064Z,53.3
2019-04-06T10:57:07.321Z,53.5
2019-04-06T10:57:57.623Z,53.7
2019-04-06T10:58:48.035Z,53.8
2019-04-06T10:59:38.070Z,53.9
2019-04-06T11:00:27.521Z,54.1
2019-04-06T11:01:17.800Z,54.3
2019-04-06T11:02:07.308Z,54.6
2019-04-06T11:02:57.854Z,54.8
2019-04-06T11:03:48.400Z,54.9
2019-04-06T11:04:38.778Z,55.1
2019-04-06T11:05:28.742Z,55.3
2019-04-06T11:06:18.350Z,55.6
2019-04-06T11:07:08.113Z,55.8
2019-04-06T11:07:58.475Z,55.9
2019-04-06T11:08:48.215Z,56
2019-04-06T11:09:39.202Z,56.1
2019-04-06T11:10:28.098Z,56.1
2019-04-06T11:11:24.450Z,56.1
2019-04-06T11:12:08.630Z,56.2
2019-04-06T11:12:59.344Z,56.3
2019-04-06T11:13:48.227Z,56.3
2019-04-06T11:14:38.217Z,56.3
2019-04-06T11:15:28.724Z,56.2
2019-04-06T11:16:19.735Z,56.1
2019-04-06T11:17:08.911Z,56.2
2019-04-06T11:17:59.547Z,56.3
2019-04-06T11:18:48.254Z,56.4
2019-04-06T11:19:39.157Z,56.4
2019-04-06T11:20:30.039Z,56.3
2019-04-06T11:21:19.725Z,56.1
2019-04-06T11:22:09.232Z,55.9
2019-04-06T11:23:00.037Z,55.6
2019-04-06T11:23:49.642Z,55.4
2019-04-06T11:24:39.089Z,55.4
2019-04-06T11:25:28.808Z,55.3
2019-04-06T11:26:18.182Z,55.1
2019-04-06T11:27:09.656Z,55.1
2019-04-06T11:27:58.947Z,55.1
2019-04-06T11:28:49.179Z,55.1
2019-04-06T11:29:40.756Z,55.3
2019-04-06T11:30:30.282Z,55.4
2019-04-06T11:31:20.195Z,55.6
2019-04-06T11:32:11.061Z,55.7
2019-04-06T11:32:59.329Z,55.8
2019-04-06T11:33:49.436Z,55.8
2019-04-06T11:34:39.898Z,55.8
2019-04-06T11:35:30.221Z,55.8
2019-04-06T11:36:19.901Z,55.8
2019-04-06T11:37:09.257Z,55.7
2019-04-06T11:38:00.573Z,55.7
2019-04-06T11:38:50.931Z,55.8
2019-04-06T11:39:39.556Z,56.1
2019-04-06T11:40:30.108Z,56.3
2019-04-06T11:41:21.403Z,56.5
2019-04-06T11:42:10.850Z,56.8
2019-04-06T11:43:00.778Z,57
2019-04-06T11:43:51.589Z,57.1
2019-04-06T11:44:40.673Z,56.9
2019-04-06T11:45:30.348Z,56.7
2019-04-06T11:46:21.321Z,56.6
2019-04-06T11:47:11.273Z,56.6
2019-04-06T11:48:00.333Z,56.7
2019-04-06T11:48:52.846Z,56.9